Lytton, Canada
Current Conditions -  °F | °C
As of 6:00 PM on Saturday 20 Dec 2014 (Local Time) from CWLY Reporting Station
Light Rain Light Rain  
Wind Chill: 37°   Ceiling: 4700
Heat Index: 41°   Visibility: 9mi
Dew Point: 37°   Wind: 6mph
Humidity: 87%   Direction: 180°S
Pressure: 29.36"   Gusts: NA
Location:  50.23°N, 121.58°W
Report Text: CWLY 210200Z AUTO 18005KT 120V210 9SM -RA SCT027 SCT033 BKN047 OVC060 05/03 A2936 RMK SLP947
Loading
Personal Weather Stations






























Interactive Weather Map New forecast layout! Learn more

10-Day Weather Forecast

Advertisements
Track Severe Weather on mobile